Time;durP1;ratioP1;P1;durP2;ratioP2;P2;SDS_P1;SDS_P2;PMS_P1;PMS_P2;Temp;Humidity;BMP_temperature;BMP_pressure;BME280_temperature;BME280_humidity;BME280_pressure;Samples;Min_cycle;Max_cycle;Signal;HPM_P1;HPM_P2
2021/06/02 00:05:11;;;;;;;5.10;2.10;;;;;;;;;;5145044;27;20468;-81
2021/06/02 00:07:41;;;;;;;3.43;1.50;;;;;;;;;;5145431;27;20484;-81
2021/06/02 00:12:55;;;;;;;3.70;1.70;;;;;;;;;;5145850;27;20480;-81
2021/06/02 00:15:22;;;;;;;3.50;1.73;;;;;;;;;;5146004;27;20457;-81
2021/06/02 00:17:52;;;;;;;2.67;1.60;;;;;;;;;;5144017;27;20464;-82
2021/06/02 00:20:19;;;;;;;3.20;1.53;;;;;;;;;;5145472;27;20530;-79
2021/06/02 00:22:48;;;;;;;2.33;1.40;;;;;;;;;;5145113;27;20458;-81
2021/06/02 00:25:15;;;;;;;2.87;1.37;;;;;;;;;;5145144;27;20458;-78
2021/06/02 00:27:42;;;;;;;3.23;1.50;;;;;;;;;;5145263;27;20830;-80
2021/06/02 00:30:10;;;;;;;2.53;1.27;;;;;;;;;;5144957;27;20481;-80
2021/06/02 00:32:38;;;;;;;3.30;1.70;;;;;;;;;;5145002;27;20489;-82
2021/06/02 00:35:07;;;;;;;2.73;1.37;;;;;;;;;;5145365;27;20489;-81
2021/06/02 00:37:35;;;;;;;2.47;1.13;;;;;;;;;;5144020;27;20462;-82
2021/06/02 00:40:04;;;;;;;4.10;1.40;;;;;;;;;;5144662;27;20457;-81
2021/06/02 00:42:32;;;;;;;3.33;1.10;;;;;;;;;;5144845;27;20458;-82
2021/06/02 00:44:59;;;;;;;2.87;1.30;;;;;;;;;;5144393;27;20542;-82
2021/06/02 00:47:30;;;;;;;2.20;1.00;;;;;;;;;;5144208;27;20513;-81
2021/06/02 00:49:58;;;;;;;4.03;1.07;;;;;;;;;;5144162;27;20462;-81
2021/06/02 00:52:27;;;;;;;3.23;1.10;;;;;;;;;;5144825;27;20793;-81
2021/06/02 00:54:54;;;;;;;3.73;1.50;;;;;;;;;;5143494;27;20468;-81
2021/06/02 00:57:24;;;;;;;2.10;0.93;;;;;;;;;;5144355;27;20434;-81
2021/06/02 00:59:52;;;;;;;3.10;1.13;;;;;;;;;;5144968;27;20470;-81
2021/06/02 01:02:19;;;;;;;3.10;1.20;;;;;;;;;;5143968;27;20458;-81
2021/06/02 01:04:48;;;;;;;2.90;1.00;;;;;;;;;;5144460;27;21024;-81
2021/06/02 01:07:16;;;;;;;2.50;0.90;;;;;;;;;;5144923;27;20450;-81
2021/06/02 01:12:33;;;;;;;2.10;0.80;;;;;;;;;;5143878;27;20519;-81
2021/06/02 01:15:00;;;;;;;2.67;0.90;;;;;;;;;;5145414;27;20470;-82
2021/06/02 01:17:28;;;;;;;3.97;1.13;;;;;;;;;;5144071;27;20505;-80
2021/06/02 01:19:57;;;;;;;3.50;1.30;;;;;;;;;;5143512;27;20464;-80
2021/06/02 01:22:27;;;;;;;2.43;1.17;;;;;;;;;;5143809;27;20464;-81
2021/06/02 01:24:54;;;;;;;2.93;1.17;;;;;;;;;;5142334;27;20861;-80
2021/06/02 01:27:21;;;;;;;3.23;1.00;;;;;;;;;;5142348;27;20537;-80
2021/06/02 01:29:49;;;;;;;2.27;1.03;;;;;;;;;;5141512;27;20461;-81
2021/06/02 01:32:24;;;;;;;2.83;1.30;;;;;;;;;;5144252;27;20486;-81
2021/06/02 01:35:00;;;;;;;2.73;1.10;;;;;;;;;;5144602;27;20856;-81
2021/06/02 01:37:39;;;;;;;3.53;1.03;;;;;;;;;;5144463;27;20454;-81
2021/06/02 01:40:20;;;;;;;2.20;0.90;;;;;;;;;;5144309;27;20530;-81
2021/06/02 01:43:00;;;;;;;2.43;1.03;;;;;;;;;;5144338;27;20461;-82
2021/06/02 01:45:43;;;;;;;1.90;0.80;;;;;;;;;;5144044;27;20913;-81
2021/06/02 01:48:34;;;;;;;3.27;0.90;;;;;;;;;;5143207;27;20449;-81
2021/06/02 01:51:18;;;;;;;3.00;1.17;;;;;;;;;;5143854;27;20450;-81
2021/06/02 01:53:51;;;;;;;2.53;1.00;;;;;;;;;;5143046;27;20466;-80
2021/06/02 01:56:39;;;;;;;8.07;1.17;;;;;;;;;;5142355;27;20454;-81
2021/06/02 01:59:24;;;;;;;2.70;1.13;;;;;;;;;;5144323;27;20546;-81
2021/06/02 02:02:04;;;;;;;3.63;0.80;;;;;;;;;;5143120;27;20502;-80
2021/06/02 02:04:49;;;;;;;2.57;0.90;;;;;;;;;;5144091;27;20526;-81
2021/06/02 02:07:31;;;;;;;3.40;1.13;;;;;;;;;;5137756;27;20446;-81
2021/06/02 02:10:12;;;;;;;2.53;1.13;;;;;;;;;;5144033;27;20461;-81
2021/06/02 02:12:50;;;;;;;2.67;0.90;;;;;;;;;;5143658;27;20510;-80
2021/06/02 02:15:21;;;;;;;3.57;1.00;;;;;;;;;;5146938;27;20491;-81
2021/06/02 02:18:03;;;;;;;3.03;1.20;;;;;;;;;;5148399;27;20458;-81
2021/06/02 02:20:49;;;;;;;2.93;1.10;;;;;;;;;;5145912;27;20529;-81
2021/06/02 02:23:22;;;;;;;2.17;1.00;;;;;;;;;;5147105;27;20837;-81
2021/06/02 02:25:52;;;;;;;2.50;0.90;;;;;;;;;;5147851;27;20445;-81
2021/06/02 02:28:26;;;;;;;3.13;1.40;;;;;;;;;;5147610;27;20446;-80
2021/06/02 02:30:56;;;;;;;5.33;1.20;;;;;;;;;;5147077;27;20545;-81
2021/06/02 02:33:27;;;;;;;2.10;1.20;;;;;;;;;;5147586;27;20730;-80
2021/06/02 02:36:13;;;;;;;4.63;1.50;;;;;;;;;;5146667;27;20738;-81
2021/06/02 02:38:55;;;;;;;1.90;0.90;;;;;;;;;;5146677;27;20537;-80
2021/06/02 02:41:34;;;;;;;3.47;1.30;;;;;;;;;;5148476;27;20462;-81
2021/06/02 02:44:06;;;;;;;4.10;0.97;;;;;;;;;;5146697;27;20468;-80
2021/06/02 02:46:37;;;;;;;4.30;1.07;;;;;;;;;;5147289;27;20514;-82
2021/06/02 02:49:23;;;;;;;5.00;1.17;;;;;;;;;;5146799;27;20462;-81
2021/06/02 02:51:56;;;;;;;2.07;0.90;;;;;;;;;;5146986;27;20502;-80
2021/06/02 02:54:26;;;;;;;2.33;1.20;;;;;;;;;;5146636;27;20460;-81
2021/06/02 02:56:59;;;;;;;3.40;1.30;;;;;;;;;;5146845;27;20480;-80
2021/06/02 02:59:29;;;;;;;3.87;1.20;;;;;;;;;;5146335;27;20753;-80
2021/06/02 03:02:00;;;;;;;3.20;1.33;;;;;;;;;;5148112;27;20453;-81
2021/06/02 03:04:28;;;;;;;2.70;1.33;;;;;;;;;;5146260;27;20471;-81
2021/06/02 03:06:57;;;;;;;2.70;1.10;;;;;;;;;;5146858;27;20552;-80
2021/06/02 03:09:29;;;;;;;3.40;1.10;;;;;;;;;;5148204;27;20461;-80
2021/06/02 03:12:01;;;;;;;3.17;1.20;;;;;;;;;;5146596;27;20482;-81
2021/06/02 03:14:47;;;;;;;5.43;1.47;;;;;;;;;;5147340;27;20541;-81
2021/06/02 03:17:16;;;;;;;2.73;0.90;;;;;;;;;;5147207;27;20514;-81
2021/06/02 03:20:02;;;;;;;2.57;1.20;;;;;;;;;;5146395;27;20726;-81
2021/06/02 03:22:31;;;;;;;3.00;1.43;;;;;;;;;;5146151;27;20486;-80
2021/06/02 03:25:03;;;;;;;3.37;1.30;;;;;;;;;;5145731;27;20868;-80
2021/06/02 03:27:33;;;;;;;4.00;1.10;;;;;;;;;;5145157;27;20461;-81
2021/06/02 03:30:05;;;;;;;5.70;1.37;;;;;;;;;;5146189;27;20491;-80
2021/06/02 03:32:42;;;;;;;3.53;1.20;;;;;;;;;;5146213;27;20473;-80
2021/06/02 03:35:10;;;;;;;3.30;1.10;;;;;;;;;;5145587;27;20465;-80
2021/06/02 03:37:53;;;;;;;3.47;1.60;;;;;;;;;;5146004;27;20449;-80
2021/06/02 03:40:29;;;;;;;4.80;1.37;;;;;;;;;;5145449;27;20510;-79
2021/06/02 03:43:03;;;;;;;4.10;1.40;;;;;;;;;;5145953;27;20450;-79
2021/06/02 03:45:36;;;;;;;3.93;1.47;;;;;;;;;;5145608;27;20982;-79
2021/06/02 03:48:22;;;;;;;7.30;1.50;;;;;;;;;;5145548;27;20461;-81
2021/06/02 03:51:00;;;;;;;5.97;1.40;;;;;;;;;;5128381;27;20469;-79
2021/06/02 03:53:36;;;;;;;4.13;1.70;;;;;;;;;;5145550;27;20452;-80
2021/06/02 03:56:07;;;;;;;4.67;1.40;;;;;;;;;;5144392;27;20521;-80
2021/06/02 03:58:42;;;;;;;4.93;1.10;;;;;;;;;;5144386;27;20458;-81
2021/06/02 04:01:14;;;;;;;3.03;1.40;;;;;;;;;;5144561;27;20453;-81
2021/06/02 04:03:54;;;;;;;3.10;1.40;;;;;;;;;;5143857;27;20544;-81
2021/06/02 04:06:24;;;;;;;5.43;1.20;;;;;;;;;;5144218;27;20446;-80
2021/06/02 04:08:58;;;;;;;2.43;1.47;;;;;;;;;;5145278;27;20453;-80
2021/06/02 04:11:34;;;;;;;3.87;1.53;;;;;;;;;;5143643;27;20481;-80
2021/06/02 04:14:03;;;;;;;3.50;1.20;;;;;;;;;;5144111;27;20472;-80
2021/06/02 04:16:31;;;;;;;3.67;1.60;;;;;;;;;;5142956;27;20450;-81
2021/06/02 04:19:01;;;;;;;5.20;1.77;;;;;;;;;;5142407;27;20449;-81
2021/06/02 04:21:28;;;;;;;3.73;1.30;;;;;;;;;;5143850;27;20741;-81
2021/06/02 04:23:57;;;;;;;3.53;1.40;;;;;;;;;;5143874;27;20465;-81
2021/06/02 04:26:29;;;;;;;5.60;1.63;;;;;;;;;;5143731;27;20522;-81
2021/06/02 04:28:58;;;;;;;6.27;1.60;;;;;;;;;;5143046;27;20442;-81
2021/06/02 04:31:28;;;;;;;5.90;1.70;;;;;;;;;;5142787;27;20921;-81
2021/06/02 04:33:56;;;;;;;5.00;1.87;;;;;;;;;;5143454;27;20458;-79
2021/06/02 04:36:42;;;;;;;4.10;1.70;;;;;;;;;;5144830;27;20469;-79
2021/06/02 04:39:09;;;;;;;5.30;2.23;;;;;;;;;;5144123;27;20589;-81
2021/06/02 04:41:38;;;;;;;3.33;1.70;;;;;;;;;;5144930;27;20462;-82
2021/06/02 04:44:07;;;;;;;3.60;1.40;;;;;;;;;;5143846;27;20468;-81
2021/06/02 04:46:36;;;;;;;4.27;1.60;;;;;;;;;;5144196;27;20729;-81
2021/06/02 04:49:21;;;;;;;4.27;1.80;;;;;;;;;;5143668;27;20462;-81
2021/06/02 04:52:09;;;;;;;2.97;1.50;;;;;;;;;;5142888;27;20490;-81
2021/06/02 04:57:54;;;;;;;5.37;1.90;;;;;;;;;;5145143;27;20455;-81
2021/06/02 05:00:44;;;;;;;4.37;2.20;;;;;;;;;;5143166;27;20464;-79
2021/06/02 05:03:35;;;;;;;3.40;1.67;;;;;;;;;;5143858;27;20453;-81
2021/06/02 05:06:29;;;;;;;4.40;2.00;;;;;;;;;;5142323;27;20937;-80
2021/06/02 05:09:19;;;;;;;3.93;1.67;;;;;;;;;;5144308;27;20618;-80
2021/06/02 05:12:04;;;;;;;5.27;1.70;;;;;;;;;;5143150;27;20519;-81
2021/06/02 05:14:48;;;;;;;7.00;2.40;;;;;;;;;;5142191;27;20510;-81
2021/06/02 05:17:31;;;;;;;7.07;2.60;;;;;;;;;;5142773;27;20536;-79
2021/06/02 05:20:19;;;;;;;7.03;2.03;;;;;;;;;;5143163;27;20869;-81
2021/06/02 05:23:04;;;;;;;3.53;1.93;;;;;;;;;;5142877;27;20519;-81
2021/06/02 05:25:46;;;;;;;4.50;2.10;;;;;;;;;;5143053;27;20458;-80
2021/06/02 05:28:32;;;;;;;2.83;1.47;;;;;;;;;;5141949;27;20536;-81
2021/06/02 05:31:09;;;;;;;5.43;1.70;;;;;;;;;;5140845;27;20478;-81
2021/06/02 05:34:03;;;;;;;3.00;1.60;;;;;;;;;;5141746;27;20492;-81
2021/06/02 05:36:49;;;;;;;3.57;2.30;;;;;;;;;;5141992;27;20520;-80
2021/06/02 05:39:23;;;;;;;3.43;2.00;;;;;;;;;;5142052;27;20522;-81
2021/06/02 05:42:03;;;;;;;3.43;2.10;;;;;;;;;;5141617;27;20536;-81
2021/06/02 05:44:44;;;;;;;3.80;1.63;;;;;;;;;;5141022;27;20526;-80
2021/06/02 05:47:26;;;;;;;3.80;1.93;;;;;;;;;;5141630;27;20454;-80
2021/06/02 05:50:11;;;;;;;4.43;1.97;;;;;;;;;;5143444;27;20881;-79
2021/06/02 05:52:51;;;;;;;3.50;1.87;;;;;;;;;;5145909;27;20536;-80
2021/06/02 05:55:44;;;;;;;3.90;2.20;;;;;;;;;;5145314;27;20487;-79
2021/06/02 05:58:37;;;;;;;4.30;2.13;;;;;;;;;;5145136;27;20446;-80
2021/06/02 06:01:19;;;;;;;3.37;1.77;;;;;;;;;;5080801;27;21109;-80
2021/06/02 06:04:14;;;;;;;5.87;2.07;;;;;;;;;;5149072;27;20536;-81
2021/06/02 06:06:58;;;;;;;4.87;2.10;;;;;;;;;;5144176;27;20497;-81
2021/06/02 06:09:40;;;;;;;6.13;2.50;;;;;;;;;;5144446;27;20535;-81
2021/06/02 06:12:40;;;;;;;3.57;2.07;;;;;;;;;;5144225;27;20968;-81
2021/06/02 06:15:26;;;;;;;3.10;2.03;;;;;;;;;;5147082;27;20454;-79
2021/06/02 06:18:11;;;;;;;8.73;4.40;;;;;;;;;;5159293;27;20727;-81
2021/06/02 06:20:45;;;;;;;4.60;2.60;;;;;;;;;;5093344;27;20912;-80
2021/06/02 06:23:17;;;;;;;4.40;2.30;;;;;;;;;;5160907;27;20594;-80
2021/06/02 06:25:48;;;;;;;4.13;2.03;;;;;;;;;;5164437;27;20448;-81
2021/06/02 06:28:19;;;;;;;5.10;2.73;;;;;;;;;;5162380;27;20459;-79
2021/06/02 06:30:49;;;;;;;6.60;2.60;;;;;;;;;;5158740;27;20450;-79
2021/06/02 06:33:17;;;;;;;4.87;2.47;;;;;;;;;;5165676;27;20480;-81
2021/06/02 06:35:48;;;;;;;5.30;2.27;;;;;;;;;;5166981;27;20451;-79
2021/06/02 06:38:23;;;;;;;5.17;2.50;;;;;;;;;;5159348;27;20445;-81
2021/06/02 06:40:52;;;;;;;4.60;2.03;;;;;;;;;;5151690;27;20543;-80
2021/06/02 06:43:21;;;;;;;4.33;1.93;;;;;;;;;;5152083;27;20460;-80
2021/06/02 06:45:49;;;;;;;4.07;1.67;;;;;;;;;;5168441;27;20444;-80
2021/06/02 06:48:17;;;;;;;5.80;2.50;;;;;;;;;;5155691;27;20734;-80
2021/06/02 06:50:46;;;;;;;4.70;2.00;;;;;;;;;;5166062;27;20532;-80
2021/06/02 06:53:13;;;;;;;4.57;2.03;;;;;;;;;;5158620;27;20916;-81
2021/06/02 06:55:42;;;;;;;5.53;2.10;;;;;;;;;;5161052;27;20450;-80
2021/06/02 06:58:10;;;;;;;3.53;1.90;;;;;;;;;;5152200;27;20465;-80
2021/06/02 07:00:38;;;;;;;4.70;1.90;;;;;;;;;;5154942;27;20478;-81
2021/06/02 07:03:05;;;;;;;4.20;2.10;;;;;;;;;;5155359;27;20449;-82
2021/06/02 07:05:33;;;;;;;5.50;2.40;;;;;;;;;;5165495;27;20492;-80
2021/06/02 07:08:01;;;;;;;3.53;2.10;;;;;;;;;;5151454;27;20474;-81
2021/06/02 07:10:28;;;;;;;3.67;1.97;;;;;;;;;;5148727;27;20463;-81
2021/06/02 07:12:57;;;;;;;5.43;1.80;;;;;;;;;;5154145;27;20489;-83
2021/06/02 07:15:26;;;;;;;4.40;1.73;;;;;;;;;;5162258;27;20461;-83
2021/06/02 07:17:53;;;;;;;3.93;1.80;;;;;;;;;;5156146;27;20508;-81
2021/06/02 07:20:22;;;;;;;6.73;1.80;;;;;;;;;;5164855;27;20455;-81
2021/06/02 07:22:50;;;;;;;3.73;2.00;;;;;;;;;;5154161;27;20624;-82
2021/06/02 07:25:18;;;;;;;4.70;1.67;;;;;;;;;;5157707;27;20459;-82
2021/06/02 07:27:46;;;;;;;4.30;1.67;;;;;;;;;;5165774;27;20539;-81
2021/06/02 07:30:16;;;;;;;6.13;1.83;;;;;;;;;;5155043;27;20468;-82
2021/06/02 07:32:44;;;;;;;4.17;1.93;;;;;;;;;;5156484;27;20556;-79
2021/06/02 07:35:12;;;;;;;3.60;1.70;;;;;;;;;;5158240;27;20484;-81
2021/06/02 07:37:40;;;;;;;4.63;1.70;;;;;;;;;;5162563;27;20704;-81
2021/06/02 07:40:08;;;;;;;3.20;1.67;;;;;;;;;;5145189;27;20541;-82
2021/06/02 07:42:35;;;;;;;5.70;2.03;;;;;;;;;;5141793;27;20525;-80
2021/06/02 07:45:03;;;;;;;5.67;2.70;;;;;;;;;;5153056;27;20549;-81
2021/06/02 07:47:31;;;;;;;3.80;1.90;;;;;;;;;;5170340;27;21046;-83
2021/06/02 07:49:59;;;;;;;5.10;1.90;;;;;;;;;;5169429;27;20544;-83
2021/06/02 07:52:26;;;;;;;4.00;1.57;;;;;;;;;;5168684;27;20485;-81
2021/06/02 07:54:53;;;;;;;5.03;1.73;;;;;;;;;;5154987;27;20467;-81
2021/06/02 07:57:21;;;;;;;3.27;1.70;;;;;;;;;;5173598;27;20557;-84
2021/06/02 07:59:55;;;;;;;5.33;2.10;;;;;;;;;;5161649;27;20482;-83
2021/06/02 08:02:23;;;;;;;3.57;1.63;;;;;;;;;;5163888;27;20488;-83
2021/06/02 08:04:51;;;;;;;4.10;1.50;;;;;;;;;;5162917;27;20471;-83
2021/06/02 08:07:21;;;;;;;5.47;2.00;;;;;;;;;;5148116;27;20448;-81
2021/06/02 08:09:51;;;;;;;6.20;2.00;;;;;;;;;;5149514;27;20458;-82
2021/06/02 08:12:18;;;;;;;7.13;1.70;;;;;;;;;;5165387;27;20520;-82
2021/06/02 08:14:46;;;;;;;3.27;1.40;;;;;;;;;;5153860;27;20521;-84
2021/06/02 08:17:13;;;;;;;6.10;1.53;;;;;;;;;;5149092;27;20484;-83
2021/06/02 08:19:40;;;;;;;2.50;1.53;;;;;;;;;;5147973;27;20462;-84
2021/06/02 08:22:09;;;;;;;3.70;1.80;;;;;;;;;;5158262;27;20464;-85
2021/06/02 08:24:39;;;;;;;4.00;1.50;;;;;;;;;;5176603;27;20554;-81
2021/06/02 08:27:06;;;;;;;4.10;1.40;;;;;;;;;;5178646;27;21072;-80
2021/06/02 08:29:34;;;;;;;2.90;1.40;;;;;;;;;;5156601;27;20477;-81
2021/06/02 08:32:01;;;;;;;3.87;1.50;;;;;;;;;;5163743;27;20520;-83
2021/06/02 08:34:28;;;;;;;6.30;1.50;;;;;;;;;;5155102;27;20584;-79
2021/06/02 08:36:55;;;;;;;2.77;1.17;;;;;;;;;;5163469;27;20815;-82
2021/06/02 08:39:26;;;;;;;4.80;1.87;;;;;;;;;;5158196;27;20559;-84
2021/06/02 08:41:53;;;;;;;3.70;1.50;;;;;;;;;;5168437;27;20585;-82
2021/06/02 08:44:22;;;;;;;3.03;1.50;;;;;;;;;;5173766;27;20461;-83
2021/06/02 08:46:50;;;;;;;5.33;1.60;;;;;;;;;;5153438;27;20453;-85
2021/06/02 08:49:18;;;;;;;3.03;1.23;;;;;;;;;;5150448;27;20625;-85
2021/06/02 08:51:46;;;;;;;2.80;1.53;;;;;;;;;;5159161;27;20449;-81
2021/06/02 08:54:15;;;;;;;3.57;2.00;;;;;;;;;;5163528;27;20518;-79
2021/06/02 08:56:45;;;;;;;4.73;2.30;;;;;;;;;;5158778;27;20438;-83
2021/06/02 08:59:12;;;;;;;3.90;2.10;;;;;;;;;;5143417;27;20472;-81
2021/06/02 09:01:40;;;;;;;2.93;1.60;;;;;;;;;;5156023;27;20453;-82
2021/06/02 09:04:09;;;;;;;3.77;2.00;;;;;;;;;;5158774;27;20461;-83
2021/06/02 09:06:37;;;;;;;3.87;1.83;;;;;;;;;;5164407;27;20524;-83
2021/06/02 09:09:13;;;;;;;4.83;2.30;;;;;;;;;;5147706;27;20455;-84
2021/06/02 09:11:42;;;;;;;4.23;1.97;;;;;;;;;;5147505;27;20458;-84
2021/06/02 09:14:33;;;;;;;3.60;1.90;;;;;;;;;;5168730;27;20884;-81
2021/06/02 09:17:01;;;;;;;5.17;1.90;;;;;;;;;;5164332;27;20453;-81
2021/06/02 09:19:34;;;;;;;3.80;1.73;;;;;;;;;;5158590;27;20453;-83
2021/06/02 09:22:02;;;;;;;3.90;2.07;;;;;;;;;;5149898;27;20477;-83
2021/06/02 09:24:48;;;;;;;3.67;1.97;;;;;;;;;;5157050;27;20537;-83
2021/06/02 09:27:16;;;;;;;3.63;2.83;;;;;;;;;;5155597;27;20461;-83
2021/06/02 09:29:55;;;;;;;4.50;2.00;;;;;;;;;;5161923;27;20473;-84
2021/06/02 09:32:24;;;;;;;4.90;1.90;;;;;;;;;;5153336;27;20549;-82
2021/06/02 09:35:05;;;;;;;5.10;2.07;;;;;;;;;;5135178;27;20542;-85
2021/06/02 09:37:33;;;;;;;3.33;2.30;;;;;;;;;;5133615;27;20918;-81
2021/06/02 09:40:05;;;;;;;4.83;2.13;;;;;;;;;;5165576;27;20445;-81
2021/06/02 09:42:32;;;;;;;36.40;25.20;;;;;;;;;;5148873;27;20531;-83
2021/06/02 09:45:06;;;;;;;3.40;2.00;;;;;;;;;;5156609;27;20454;-82
2021/06/02 09:47:47;;;;;;;3.17;1.80;;;;;;;;;;5155380;27;20460;-82
2021/06/02 09:50:20;;;;;;;3.70;1.60;;;;;;;;;;5143504;27;20866;-81
2021/06/02 09:52:48;;;;;;;6.13;1.93;;;;;;;;;;5159462;27;20472;-81
2021/06/02 09:55:21;;;;;;;4.90;1.80;;;;;;;;;;5159435;27;20445;-81
2021/06/02 09:57:55;;;;;;;3.53;2.13;;;;;;;;;;5148707;27;20485;-78
2021/06/02 10:00:24;;;;;;;3.20;1.90;;;;;;;;;;5146904;27;20838;-80
2021/06/02 10:03:20;;;;;;;9.13;1.90;;;;;;;;;;5151327;27;20496;-80
2021/06/02 10:05:48;;;;;;;4.23;2.10;;;;;;;;;;5149149;27;20515;-82
2021/06/02 10:08:25;;;;;;;4.90;2.30;;;;;;;;;;5155519;27;20453;-79
2021/06/02 10:10:53;;;;;;;4.00;2.03;;;;;;;;;;5146730;27;20861;-82
2021/06/02 10:13:23;;;;;;;7.60;2.20;;;;;;;;;;5151823;27;20490;-82
2021/06/02 10:16:00;;;;;;;4.40;2.10;;;;;;;;;;5148980;27;20465;-82
2021/06/02 10:18:29;;;;;;;6.33;3.00;;;;;;;;;;5148018;27;20469;-80
2021/06/02 10:21:02;;;;;;;3.90;2.50;;;;;;;;;;5149477;27;20490;-78
2021/06/02 10:23:31;;;;;;;5.87;3.10;;;;;;;;;;5145464;27;20474;-80
2021/06/02 10:26:08;;;;;;;4.77;2.57;;;;;;;;;;5146249;27;20548;-81
2021/06/02 10:28:42;;;;;;;3.70;2.30;;;;;;;;;;5159811;27;20456;-80
2021/06/02 10:31:12;;;;;;;2.87;1.60;;;;;;;;;;5160627;27;20437;-79
2021/06/02 10:33:40;;;;;;;4.60;2.00;;;;;;;;;;5139171;27;20478;-82
2021/06/02 10:36:08;;;;;;;4.73;2.10;;;;;;;;;;5161740;27;20446;-83
2021/06/02 10:38:41;;;;;;;2.90;1.83;;;;;;;;;;5164907;27;20474;-80
2021/06/02 10:41:09;;;;;;;6.47;2.80;;;;;;;;;;5164040;27;20940;-78
2021/06/02 10:43:42;;;;;;;230.80;206.17;;;;;;;;;;5164612;27;20479;-79
2021/06/02 10:46:15;;;;;;;5.37;2.73;;;;;;;;;;5156255;27;20463;-79
2021/06/02 10:48:44;;;;;;;6.60;3.20;;;;;;;;;;5166064;27;20448;-79
2021/06/02 10:51:25;;;;;;;3.23;1.80;;;;;;;;;;5159065;27;20552;-79
2021/06/02 10:54:04;;;;;;;3.63;2.20;;;;;;;;;;5149618;27;20789;-78
2021/06/02 10:56:32;;;;;;;4.90;2.50;;;;;;;;;;5155163;27;20568;-80
2021/06/02 10:59:00;;;;;;;3.40;2.20;;;;;;;;;;5155066;27;20445;-79
2021/06/02 11:01:30;;;;;;;3.47;2.33;;;;;;;;;;5149478;27;20460;-79
2021/06/02 11:04:13;;;;;;;3.00;2.00;;;;;;;;;;5157145;27;20452;-80
2021/06/02 11:06:46;;;;;;;2.60;1.70;;;;;;;;;;5161905;27;20472;-80
2021/06/02 11:09:33;;;;;;;4.23;2.30;;;;;;;;;;5161059;27;20751;-79
2021/06/02 11:12:10;;;;;;;6.00;2.70;;;;;;;;;;5154527;27;20460;-79
2021/06/02 11:14:41;;;;;;;3.87;2.77;;;;;;;;;;5163151;27;20465;-79
2021/06/02 11:17:32;;;;;;;5.67;3.03;;;;;;;;;;5162938;27;20532;-78
2021/06/02 11:20:08;;;;;;;3.63;2.63;;;;;;;;;;5148905;27;20511;-79
2021/06/02 11:22:40;;;;;;;7.00;3.40;;;;;;;;;;5162933;27;20467;-77
2021/06/02 11:25:21;;;;;;;3.83;1.90;;;;;;;;;;5166366;27;20436;-80
2021/06/02 11:27:49;;;;;;;3.70;2.50;;;;;;;;;;5161091;27;20515;-80
2021/06/02 11:30:31;;;;;;;3.50;2.43;;;;;;;;;;5159730;27;20445;-78
2021/06/02 11:33:10;;;;;;;3.07;2.33;;;;;;;;;;5156102;27;20505;-79
2021/06/02 11:36:11;;;;;;;5.33;4.50;;;;;;;;;;5168529;27;21177;-78
2021/06/02 11:38:45;;;;;;;3.13;2.70;;;;;;;;;;5150381;27;20456;-79
2021/06/02 11:41:13;;;;;;;4.97;2.63;;;;;;;;;;5150410;27;20446;-78
2021/06/02 11:43:42;;;;;;;7.23;3.13;;;;;;;;;;5157240;27;20480;-80
2021/06/02 11:46:09;;;;;;;5.17;2.90;;;;;;;;;;5157174;27;20449;-80
2021/06/02 11:48:39;;;;;;;3.93;2.43;;;;;;;;;;5163777;27;20525;-79
2021/06/02 11:51:07;;;;;;;8.17;2.70;;;;;;;;;;5153601;27;20510;-79
2021/06/02 11:53:45;;;;;;;3.50;2.33;;;;;;;;;;5157904;27;20536;-81
2021/06/02 11:56:33;;;;;;;4.50;2.53;;;;;;;;;;5163021;27;20457;-79
2021/06/02 11:59:09;;;;;;;3.70;2.60;;;;;;;;;;5166624;27;20472;-79
2021/06/02 12:01:44;;;;;;;4.30;2.97;;;;;;;;;;5153139;27;20761;-81
2021/06/02 12:04:27;;;;;;;3.50;2.77;;;;;;;;;;5150353;27;20449;-79
2021/06/02 12:07:02;;;;;;;5.20;2.63;;;;;;;;;;5155919;27;20468;-79
2021/06/02 12:09:30;;;;;;;3.63;2.00;;;;;;;;;;5145625;27;20878;-80
2021/06/02 12:12:08;;;;;;;3.27;2.20;;;;;;;;;;5163650;27;20917;-78
2021/06/02 12:14:37;;;;;;;3.33;2.63;;;;;;;;;;5150844;27;20549;-80
2021/06/02 12:17:05;;;;;;;3.83;2.93;;;;;;;;;;5144923;27;20446;-80
2021/06/02 12:19:36;;;;;;;3.83;2.20;;;;;;;;;;5152905;27;20484;-79
2021/06/02 12:22:43;;;;;;;3.27;2.10;;;;;;;;;;5147568;27;20470;-79
2021/06/02 12:28:18;;;;;;;4.97;3.37;;;;;;;;;;5158897;27;20444;-79
2021/06/02 12:30:46;;;;;;;2.90;2.17;;;;;;;;;;5162368;27;20452;-81
2021/06/02 12:33:14;;;;;;;4.43;2.00;;;;;;;;;;5157460;27;20517;-81
2021/06/02 12:35:43;;;;;;;5.30;2.40;;;;;;;;;;5142667;27;20450;-81
2021/06/02 12:38:13;;;;;;;4.57;3.00;;;;;;;;;;5156146;27;20573;-81
2021/06/02 12:40:42;;;;;;;3.47;2.20;;;;;;;;;;5142625;27;20461;-79
2021/06/02 12:43:13;;;;;;;2.80;2.47;;;;;;;;;;5149522;27;20454;-81
2021/06/02 12:45:41;;;;;;;3.67;2.60;;;;;;;;;;5143066;27;20769;-80
2021/06/02 12:48:09;;;;;;;2.93;2.20;;;;;;;;;;5145384;27;20460;-81
2021/06/02 12:50:39;;;;;;;2.50;1.90;;;;;;;;;;5150993;27;20453;-79
2021/06/02 12:53:09;;;;;;;5.57;2.67;;;;;;;;;;5164537;27;20473;-79
2021/06/02 12:55:38;;;;;;;2.60;2.10;;;;;;;;;;5150436;27;20453;-79
2021/06/02 12:58:07;;;;;;;3.00;2.33;;;;;;;;;;5144448;27;20449;-79
2021/06/02 13:00:35;;;;;;;3.33;2.20;;;;;;;;;;5148119;27;20474;-79
2021/06/02 13:03:03;;;;;;;2.60;1.90;;;;;;;;;;5159090;27;20453;-79
2021/06/02 13:05:30;;;;;;;3.53;2.90;;;;;;;;;;5158372;27;20489;-78
2021/06/02 13:08:09;;;;;;;3.77;3.00;;;;;;;;;;5161125;27;20467;-78
2021/06/02 13:11:14;;;;;;;3.50;3.07;;;;;;;;;;5161124;27;20563;-79
2021/06/02 13:13:41;;;;;;;5.10;4.40;;;;;;;;;;5167772;27;20487;-79
2021/06/02 13:16:09;;;;;;;8.20;4.40;;;;;;;;;;5162004;27;20485;-79
2021/06/02 13:18:37;;;;;;;2.50;2.00;;;;;;;;;;5165991;27;20467;-78
2021/06/02 13:21:15;;;;;;;6.60;3.40;;;;;;;;;;5166233;27;20746;-79
2021/06/02 13:23:49;;;;;;;4.83;2.40;;;;;;;;;;5163278;27;20460;-78
2021/06/02 13:26:17;;;;;;;4.03;2.40;;;;;;;;;;5166983;27;20441;-80
2021/06/02 13:28:53;;;;;;;4.13;2.63;;;;;;;;;;5166010;27;20483;-78
2021/06/02 13:31:22;;;;;;;4.80;3.40;;;;;;;;;;5166733;27;20477;-78
2021/06/02 13:33:51;;;;;;;5.13;3.00;;;;;;;;;;5166468;27;20481;-78
2021/06/02 13:36:19;;;;;;;3.00;2.07;;;;;;;;;;5168790;27;20445;-78
2021/06/02 13:38:52;;;;;;;4.90;2.60;;;;;;;;;;5156804;27;20847;-77
2021/06/02 13:44:09;;;;;;;3.93;2.53;;;;;;;;;;5163225;27;20502;-78
2021/06/02 13:46:37;;;;;;;4.93;2.40;;;;;;;;;;5165885;27;20456;-77
2021/06/02 13:49:05;;;;;;;3.97;2.30;;;;;;;;;;5165758;27;20456;-78
2021/06/02 13:51:42;;;;;;;5.63;3.03;;;;;;;;;;5125160;27;20447;-81
2021/06/02 13:54:31;;;;;;;5.33;2.80;;;;;;;;;;5161490;27;20860;-79
2021/06/02 13:57:05;;;;;;;3.70;3.30;;;;;;;;;;5168221;27;20460;-78
2021/06/02 14:00:08;;;;;;;4.00;2.40;;;;;;;;;;5166090;27;20468;-78
2021/06/02 14:02:49;;;;;;;4.37;2.40;;;;;;;;;;5156559;27;21104;-78
2021/06/02 14:05:18;;;;;;;4.50;2.60;;;;;;;;;;5162184;27;20449;-77
2021/06/02 14:07:45;;;;;;;4.40;3.23;;;;;;;;;;5164717;27;20458;-78
2021/06/02 14:10:15;;;;;;;4.63;3.23;;;;;;;;;;5147045;27;20454;-77
2021/06/02 14:12:42;;;;;;;4.10;3.00;;;;;;;;;;5166515;27;20477;-78
2021/06/02 14:15:22;;;;;;;4.70;3.40;;;;;;;;;;5164565;27;20560;-78
2021/06/02 14:17:51;;;;;;;4.47;3.43;;;;;;;;;;5168685;27;20464;-78
2021/06/02 14:20:22;;;;;;;4.73;3.50;;;;;;;;;;5165880;27;20516;-79
2021/06/02 14:22:50;;;;;;;5.60;4.40;;;;;;;;;;5172251;27;20528;-78
2021/06/02 14:25:18;;;;;;;3.03;2.50;;;;;;;;;;5164612;27;20455;-80
2021/06/02 14:27:47;;;;;;;3.40;2.97;;;;;;;;;;5151200;27;20551;-79
2021/06/02 14:30:16;;;;;;;5.10;4.20;;;;;;;;;;5163800;27;20457;-79
2021/06/02 14:32:44;;;;;;;6.27;2.90;;;;;;;;;;5160904;27;20481;-80
2021/06/02 14:35:12;;;;;;;4.40;3.60;;;;;;;;;;5167339;27;20453;-79
2021/06/02 14:37:43;;;;;;;5.63;4.60;;;;;;;;;;5156526;27;20482;-79
2021/06/02 14:40:11;;;;;;;5.70;3.80;;;;;;;;;;5171647;27;20554;-78
2021/06/02 14:42:40;;;;;;;4.47;3.50;;;;;;;;;;5172667;27;20493;-79
2021/06/02 14:45:07;;;;;;;5.67;3.03;;;;;;;;;;5168568;27;20865;-79
2021/06/02 14:47:35;;;;;;;4.87;3.00;;;;;;;;;;5163681;27;20475;-78
2021/06/02 14:50:06;;;;;;;4.03;3.27;;;;;;;;;;5165492;27;20449;-79
2021/06/02 14:52:33;;;;;;;4.40;3.53;;;;;;;;;;5166220;27;20488;-79
2021/06/02 14:55:00;;;;;;;5.30;3.70;;;;;;;;;;5171603;27;20453;-78
2021/06/02 14:57:30;;;;;;;9.53;6.27;;;;;;;;;;5157010;27;20472;-78
2021/06/02 14:59:59;;;;;;;4.60;2.77;;;;;;;;;;5166446;27;20452;-78
2021/06/02 15:02:27;;;;;;;5.00;3.50;;;;;;;;;;5164197;27;20488;-80
2021/06/02 15:04:54;;;;;;;4.57;3.40;;;;;;;;;;5153536;27;20569;-79
2021/06/02 15:07:21;;;;;;;5.57;3.00;;;;;;;;;;5159160;27;20445;-78
2021/06/02 15:09:48;;;;;;;5.13;3.40;;;;;;;;;;5162504;27;20452;-79
2021/06/02 15:12:15;;;;;;;5.50;3.00;;;;;;;;;;5163554;27;20452;-78
2021/06/02 15:14:42;;;;;;;4.10;3.27;;;;;;;;;;5161525;27;20504;-78
2021/06/02 15:17:11;;;;;;;5.03;3.60;;;;;;;;;;5148647;27;20468;-78
2021/06/02 15:19:38;;;;;;;4.43;3.17;;;;;;;;;;5165384;27;20544;-78
2021/06/02 15:22:05;;;;;;;35.33;4.90;;;;;;;;;;5159940;27;20551;-78
2021/06/02 15:24:33;;;;;;;4.70;3.03;;;;;;;;;;5163984;27;20465;-78
2021/06/02 15:27:03;;;;;;;4.03;3.33;;;;;;;;;;5151128;27;20458;-78
2021/06/02 15:29:44;;;;;;;3.83;2.93;;;;;;;;;;5166146;27;20449;-78
2021/06/02 15:32:17;;;;;;;4.90;3.63;;;;;;;;;;5165538;27;20863;-78
2021/06/02 15:34:45;;;;;;;4.97;3.63;;;;;;;;;;5148816;27;20465;-79
2021/06/02 15:37:21;;;;;;;4.93;4.00;;;;;;;;;;5159527;27;20481;-78